Time;durP1;ratioP1;P1;durP2;ratioP2;P2;SDS_P1;SDS_P2;PMS_P1;PMS_P2;Temp;Humidity;BMP_temperature;BMP_pressure;BME280_temperature;BME280_humidity;BME280_pressure;Samples;Min_cycle;Max_cycle;Signal;HPM_P1;HPM_P2
2023/12/15 06:02:40;;;;;;;;;;;;;;;;;;4933037;23;20374;-56
2023/12/15 06:05:06;;;;;;;;;;;;;;;;;;4932817;29;19929;-54
2023/12/15 06:07:33;;;;;;;;;;;;;;;;;;4932696;29;20373;-53
2023/12/15 06:09:59;;;;;;;;;;;;;;;;;;4932902;29;20353;-54
2023/12/15 06:12:25;;;;;;;;;;;;;;;;;;4932510;29;19974;-54
2023/12/15 06:14:51;;;;;;;;;;;;;;;;;;4932298;29;19914;-54
2023/12/15 06:17:17;;;;;;;;;;;;;;;;;;4932412;29;20358;-53
2023/12/15 06:19:43;;;;;;;;;;;;;;;;;;4932881;29;19907;-53
2023/12/15 06:22:09;;;;;;;;;;;;;;;;;;4932470;29;20385;-53
2023/12/15 06:24:35;;;;;;;;;;;;;;;;;;4933116;29;19937;-50
2023/12/15 06:27:03;;;;;;;;;;;;;;;;;;4932390;29;19957;-53
2023/12/15 06:29:29;;;;;;;;;;;;;;;;;;4932306;29;19923;-55
2023/12/15 06:31:55;;;;;;;;;;;;;;;;;;4932315;29;19915;-54
2023/12/15 06:34:21;;;;;;;;;;;;;;;;;;4932369;29;19978;-54
2023/12/15 06:36:46;;;;;;;;;;;;;;;;;;4932350;29;20075;-54
2023/12/15 06:39:13;;;;;;;;;;;;;;;;;;4931914;29;20286;-53
2023/12/15 06:41:39;;;;;;;;;;;;;;;;;;4932302;29;19918;-54
2023/12/15 06:44:06;;;;;;;;;;;;;;;;;;4932404;29;19915;-54
2023/12/15 06:46:36;;;;;;;;;;;;;;;;;;4932313;29;19916;-52
2023/12/15 06:49:02;;;;;;;;;;;;;;;;;;4931982;29;19911;-54
2023/12/15 06:51:28;;;;;;;;;;;;;;;;;;4932340;29;19911;-55
2023/12/15 06:53:54;;;;;;;;;;;;;;;;;;4932118;29;19914;-54
2023/12/15 06:56:20;;;;;;;;;;;;;;;;;;4932250;29;20338;-51
2023/12/15 06:58:46;;;;;;;;;;;;;;;;;;4931692;29;19911;-54
2023/12/15 07:01:13;;;;;;;;;;;;;;;;;;4931931;29;19947;-51
2023/12/15 07:03:39;;;;;;;;;;;;;;;;;;4932198;29;19911;-54
2023/12/15 07:06:05;;;;;;;;;;;;;;;;;;4933082;29;19919;-53
2023/12/15 07:08:31;;;;;;;;;;;;;;;;;;4935634;29;19918;-55
2023/12/15 07:10:57;;;;;;;;;;;;;;;;;;4935935;29;19911;-54
2023/12/15 07:13:23;;;;;;;;;;;;;;;;;;4935544;29;19942;-54
2023/12/15 07:15:49;;;;;;;;;;;;;;;;;;4935696;29;19911;-53
2023/12/15 07:18:14;;;;;;;;;;;;;;;;;;4935502;29;19911;-54
2023/12/15 07:20:40;;;;;;;;;;;;;;;;;;4935799;29;19911;-50
2023/12/15 07:23:07;;;;;;;;;;;;;;;;;;4936045;29;20180;-53
2023/12/15 07:25:33;;;;;;;;;;;;;;;;;;4935606;29;20306;-53
2023/12/15 07:27:58;;;;;;;;;;;;;;;;;;4935304;29;19911;-54
2023/12/15 07:30:24;;;;;;;;;;;;;;;;;;4935542;29;19938;-54
2023/12/15 07:32:50;;;;;;;;;;;;;;;;;;4935401;29;19911;-54
2023/12/15 07:35:16;;;;;;;;;;;;;;;;;;4935614;29;19911;-54
2023/12/15 07:37:42;;;;;;;;;;;;;;;;;;4935228;29;19982;-54
2023/12/15 07:40:08;;;;;;;;;;;;;;;;;;4935772;29;20007;-53
2023/12/15 07:42:34;;;;;;;;;;;;;;;;;;4935180;29;19911;-51
2023/12/15 07:45:00;;;;;;;;;;;;;;;;;;4935160;29;20294;-53
2023/12/15 07:47:26;;;;;;;;;;;;;;;;;;4935522;29;19911;-54
2023/12/15 07:49:52;;;;;;;;;;;;;;;;;;4935041;29;19911;-53
2023/12/15 07:52:18;;;;;;;;;;;;;;;;;;4935093;29;19918;-54
2023/12/15 07:54:44;;;;;;;;;;;;;;;;;;4935128;29;19949;-54
2023/12/15 07:57:10;;;;;;;;;;;;;;;;;;4935272;29;19910;-53
2023/12/15 07:59:36;;;;;;;;;;;;;;;;;;4934682;29;20218;-54
2023/12/15 08:02:03;;;;;;;;;;;;;;;;;;4934812;29;20399;-54
2023/12/15 08:04:29;;;;;;;;;;;;;;;;;;4934851;29;20394;-54
2023/12/15 08:06:55;;;;;;;;;;;;;;;;;;4934948;29;19962;-54
2023/12/15 08:09:21;;;;;;;;;;;;;;;;;;4934938;29;20350;-54
2023/12/15 08:11:48;;;;;;;;;;;;;;;;;;4934790;29;19911;-52
2023/12/15 08:14:14;;;;;;;;;;;;;;;;;;4938046;29;19915;-54
2023/12/15 08:16:39;;;;;;;;;;;;;;;;;;4935859;29;19918;-53
2023/12/15 08:19:08;;;;;;;;;;;;;;;;;;4935585;29;19998;-51
2023/12/15 08:21:34;;;;;;;;;;;;;;;;;;4935761;29;20002;-54
2023/12/15 08:24:00;;;;;;;;;;;;;;;;;;4935695;29;20354;-54
2023/12/15 08:26:29;;;;;;;;;;;;;;;;;;4935181;29;19922;-55
2023/12/15 08:28:55;;;;;;;;;;;;;;;;;;4935206;29;20441;-54
2023/12/15 08:31:21;;;;;;;;;;;;;;;;;;4935325;29;19915;-54
2023/12/15 08:33:47;;;;;;;;;;;;;;;;;;4935515;29;19918;-55
2023/12/15 08:36:13;;;;;;;;;;;;;;;;;;4935449;29;20410;-55
2023/12/15 08:38:39;;;;;;;;;;;;;;;;;;4935490;29;19911;-53
2023/12/15 08:41:06;;;;;;;;;;;;;;;;;;4935484;29;19971;-54
2023/12/15 08:43:32;;;;;;;;;;;;;;;;;;4935120;29;20002;-53
2023/12/15 08:45:58;;;;;;;;;;;;;;;;;;4935325;29;20009;-54
2023/12/15 08:48:24;;;;;;;;;;;;;;;;;;4935127;29;19966;-55
2023/12/15 08:50:49;;;;;;;;;;;;;;;;;;4934968;29;19918;-54
2023/12/15 08:53:18;;;;;;;;;;;;;;;;;;4935136;29;19911;-55
2023/12/15 08:55:44;;;;;;;;;;;;;;;;;;4917505;29;19911;-54
2023/12/15 08:58:10;;;;;;;;;;;;;;;;;;4935288;29;20010;-53
2023/12/15 09:00:36;;;;;;;;;;;;;;;;;;4933028;29;19994;-55
2023/12/15 09:03:02;;;;;;;;;;;;;;;;;;4937036;29;19919;-53
2023/12/15 09:05:28;;;;;;;;;;;;;;;;;;4944500;29;20398;-53
2023/12/15 09:07:54;;;;;;;;;;;;;;;;;;4948850;29;19959;-55
2023/12/15 09:10:20;;;;;;;;;;;;;;;;;;4935000;29;19954;-54
2023/12/15 09:12:45;;;;;;;;;;;;;;;;;;4934856;29;19966;-54
2023/12/15 09:15:12;;;;;;;;;;;;;;;;;;4935043;29;19917;-55
2023/12/15 09:17:38;;;;;;;;;;;;;;;;;;4935013;29;20005;-54
2023/12/15 09:20:04;;;;;;;;;;;;;;;;;;4940926;29;20486;-55
2023/12/15 09:22:30;;;;;;;;;;;;;;;;;;4953901;29;19911;-53
2023/12/15 09:24:56;;;;;;;;;;;;;;;;;;4937445;29;19911;-53
2023/12/15 09:27:22;;;;;;;;;;;;;;;;;;4934960;29;19915;-54
2023/12/15 09:29:47;;;;;;;;;;;;;;;;;;4933997;29;19938;-55
2023/12/15 09:32:13;;;;;;;;;;;;;;;;;;4935352;29;19947;-55
2023/12/15 09:34:39;;;;;;;;;;;;;;;;;;4934690;29;19915;-54
2023/12/15 09:37:05;;;;;;;;;;;;;;;;;;4945728;29;19915;-55
2023/12/15 09:39:31;;;;;;;;;;;;;;;;;;4954265;29;20520;-54
2023/12/15 09:41:57;;;;;;;;;;;;;;;;;;4950302;29;19921;-54
2023/12/15 09:44:23;;;;;;;;;;;;;;;;;;4924668;29;20369;-55
2023/12/15 09:46:49;;;;;;;;;;;;;;;;;;4934291;29;19915;-54
2023/12/15 09:49:15;;;;;;;;;;;;;;;;;;4933850;29;19925;-54
2023/12/15 09:51:41;;;;;;;;;;;;;;;;;;4937480;29;19942;-53
2023/12/15 09:54:07;;;;;;;;;;;;;;;;;;4937496;29;19922;-55
2023/12/15 09:56:33;;;;;;;;;;;;;;;;;;4934155;29;19962;-54
2023/12/15 09:58:58;;;;;;;;;;;;;;;;;;4934765;29;19911;-52
2023/12/15 10:01:24;;;;;;;;;;;;;;;;;;4934721;29;19954;-55
2023/12/15 10:03:50;;;;;;;;;;;;;;;;;;4929985;29;19971;-54
2023/12/15 10:06:17;;;;;;;;;;;;;;;;;;4924744;29;20412;-53
2023/12/15 10:08:43;;;;;;;;;;;;;;;;;;4928542;29;19919;-55
2023/12/15 10:11:09;;;;;;;;;;;;;;;;;;4932856;29;19966;-55
2023/12/15 10:13:35;;;;;;;;;;;;;;;;;;4943355;29;20416;-55
2023/12/15 10:16:00;;;;;;;;;;;;;;;;;;4950828;29;19953;-55
2023/12/15 10:18:26;;;;;;;;;;;;;;;;;;4953667;29;19926;-55
2023/12/15 10:20:52;;;;;;;;;;;;;;;;;;4950422;29;20393;-55
2023/12/15 10:23:18;;;;;;;;;;;;;;;;;;4936604;29;19915;-54
2023/12/15 10:25:48;;;;;;;;;;;;;;;;;;4938293;29;19957;-55
2023/12/15 10:28:14;;;;;;;;;;;;;;;;;;4933574;29;20526;-54
2023/12/15 10:30:40;;;;;;;;;;;;;;;;;;4934026;29;19963;-54
2023/12/15 10:33:06;;;;;;;;;;;;;;;;;;4937699;29;19910;-55
2023/12/15 10:35:32;;;;;;;;;;;;;;;;;;4945158;29;19987;-54
2023/12/15 10:37:57;;;;;;;;;;;;;;;;;;4953052;29;19958;-55
2023/12/15 10:40:23;;;;;;;;;;;;;;;;;;4947501;28;19953;-55
2023/12/15 10:42:50;;;;;;;;;;;;;;;;;;4934123;29;19933;-55
2023/12/15 10:45:16;;;;;;;;;;;;;;;;;;4934227;29;20394;-54
2023/12/15 10:47:42;;;;;;;;;;;;;;;;;;4934315;29;19954;-55
2023/12/15 10:50:08;;;;;;;;;;;;;;;;;;4933240;29;19915;-55
2023/12/15 10:52:35;;;;;;;;;;;;;;;;;;4933851;29;19918;-55
2023/12/15 10:55:03;;;;;;;;;;;;;;;;;;4937488;29;19914;-56
2023/12/15 10:57:32;;;;;;;;;;;;;;;;;;4950280;29;20398;-56
2023/12/15 10:59:58;;;;;;;;;;;;;;;;;;4931003;29;20291;-55
2023/12/15 11:02:24;;;;;;;;;;;;;;;;;;4933222;29;19919;-56
2023/12/15 11:04:50;;;;;;;;;;;;;;;;;;4936714;29;19946;-55
2023/12/15 11:07:16;;;;;;;;;;;;;;;;;;4935875;29;19914;-54
2023/12/15 11:09:41;;;;;;;;;;;;;;;;;;4947591;29;19911;-55
2023/12/15 11:12:07;;;;;;;;;;;;;;;;;;4953047;29;19911;-53
2023/12/15 11:14:33;;;;;;;;;;;;;;;;;;4949870;29;20390;-55
2023/12/15 11:16:59;;;;;;;;;;;;;;;;;;4933934;29;19919;-55
2023/12/15 11:19:25;;;;;;;;;;;;;;;;;;4930401;29;19919;-55
2023/12/15 11:21:51;;;;;;;;;;;;;;;;;;4931468;29;19986;-56
2023/12/15 11:24:17;;;;;;;;;;;;;;;;;;4937783;29;19915;-56
2023/12/15 11:26:43;;;;;;;;;;;;;;;;;;4932556;29;19915;-55
2023/12/15 11:29:09;;;;;;;;;;;;;;;;;;4937291;29;19915;-56
2023/12/15 11:31:35;;;;;;;;;;;;;;;;;;4940891;29;19919;-55
2023/12/15 11:34:03;;;;;;;;;;;;;;;;;;4942329;29;20287;-56
2023/12/15 11:36:28;;;;;;;;;;;;;;;;;;4931753;29;19911;-56
2023/12/15 11:38:54;;;;;;;;;;;;;;;;;;4931886;29;20005;-55
2023/12/15 11:41:22;;;;;;;;;;;;;;;;;;4931915;29;19911;-56
2023/12/15 11:43:48;;;;;;;;;;;;;;;;;;4932056;29;19911;-54
2023/12/15 11:46:14;;;;;;;;;;;;;;;;;;4943293;29;19919;-55
2023/12/15 11:48:41;;;;;;;;;;;;;;;;;;4943934;29;19915;-56
2023/12/15 11:51:08;;;;;;;;;;;;;;;;;;4949014;29;19915;-56
2023/12/15 11:53:34;;;;;;;;;;;;;;;;;;4950426;28;19958;-55
2023/12/15 11:56:01;;;;;;;;;;;;;;;;;;4954544;29;19964;-56
2023/12/15 11:58:27;;;;;;;;;;;;;;;;;;4954382;29;19910;-55
2023/12/15 12:00:53;;;;;;;;;;;;;;;;;;4954414;29;19921;-54
2023/12/15 12:03:22;;;;;;;;;;;;;;;;;;4954240;29;19957;-54
2023/12/15 12:05:54;;;;;;;;;;;;;;;;;;4954203;29;19914;-55
2023/12/15 12:08:21;;;;;;;;;;;;;;;;;;4937045;29;19954;-55
2023/12/15 12:10:47;;;;;;;;;;;;;;;;;;4946781;29;20297;-55
2023/12/15 12:13:14;;;;;;;;;;;;;;;;;;4946977;29;19914;-56
2023/12/15 12:15:40;;;;;;;;;;;;;;;;;;4953461;29;19910;-55
2023/12/15 12:18:06;;;;;;;;;;;;;;;;;;4939087;29;20789;-55
2023/12/15 12:20:32;;;;;;;;;;;;;;;;;;4936035;29;19922;-55
2023/12/15 12:22:58;;;;;;;;;;;;;;;;;;4953727;29;20255;-56
2023/12/15 12:25:24;;;;;;;;;;;;;;;;;;4944197;29;19983;-56
2023/12/15 12:27:50;;;;;;;;;;;;;;;;;;4947688;29;19950;-57
2023/12/15 12:30:16;;;;;;;;;;;;;;;;;;4935106;29;19910;-55
2023/12/15 12:32:42;;;;;;;;;;;;;;;;;;4953182;29;19962;-56
2023/12/15 12:35:08;;;;;;;;;;;;;;;;;;4951489;29;19953;-55
2023/12/15 12:37:34;;;;;;;;;;;;;;;;;;4937107;29;19919;-54
2023/12/15 12:40:00;;;;;;;;;;;;;;;;;;4946993;29;20005;-56
2023/12/15 12:42:28;;;;;;;;;;;;;;;;;;4952598;29;19929;-56
2023/12/15 12:44:54;;;;;;;;;;;;;;;;;;4940242;29;19914;-55
2023/12/15 12:47:20;;;;;;;;;;;;;;;;;;4930302;29;19919;-56
2023/12/15 12:49:46;;;;;;;;;;;;;;;;;;4945618;29;19914;-56
2023/12/15 12:52:12;;;;;;;;;;;;;;;;;;4947978;29;20654;-56
2023/12/15 12:54:38;;;;;;;;;;;;;;;;;;4950101;29;19914;-55
2023/12/15 12:57:04;;;;;;;;;;;;;;;;;;4951446;29;19910;-56
2023/12/15 12:59:29;;;;;;;;;;;;;;;;;;4951291;29;20135;-56
2023/12/15 13:01:55;;;;;;;;;;;;;;;;;;4939900;29;19918;-54
2023/12/15 13:04:21;;;;;;;;;;;;;;;;;;4931074;29;20338;-55
2023/12/15 13:06:48;;;;;;;;;;;;;;;;;;4931357;29;19919;-56
2023/12/15 13:09:18;;;;;;;;;;;;;;;;;;4932521;29;19911;-56
2023/12/15 13:11:44;;;;;;;;;;;;;;;;;;4946009;29;19979;-56
2023/12/15 13:14:09;;;;;;;;;;;;;;;;;;4939944;29;19922;-56
2023/12/15 13:16:35;;;;;;;;;;;;;;;;;;4942558;29;20009;-55
2023/12/15 13:19:01;;;;;;;;;;;;;;;;;;4932930;29;19914;-56
2023/12/15 13:21:27;;;;;;;;;;;;;;;;;;4950477;29;19910;-56
2023/12/15 13:23:53;;;;;;;;;;;;;;;;;;4951695;29;19911;-56
2023/12/15 13:26:19;;;;;;;;;;;;;;;;;;4950727;29;19914;-56
2023/12/15 13:28:45;;;;;;;;;;;;;;;;;;4950514;29;19918;-56
2023/12/15 13:31:11;;;;;;;;;;;;;;;;;;4950601;29;20009;-56
2023/12/15 13:33:38;;;;;;;;;;;;;;;;;;4947984;29;19915;-56
2023/12/15 13:36:04;;;;;;;;;;;;;;;;;;4949360;29;19915;-56
2023/12/15 13:38:30;;;;;;;;;;;;;;;;;;4950520;29;19911;-56
2023/12/15 13:40:56;;;;;;;;;;;;;;;;;;4934888;29;20026;-56
2023/12/15 13:43:22;;;;;;;;;;;;;;;;;;4930840;29;20341;-56
2023/12/15 13:45:48;;;;;;;;;;;;;;;;;;4931213;29;19919;-57
2023/12/15 13:48:14;;;;;;;;;;;;;;;;;;4931194;29;20302;-56
2023/12/15 13:50:40;;;;;;;;;;;;;;;;;;4931436;29;20002;-55
2023/12/15 13:53:06;;;;;;;;;;;;;;;;;;4942466;29;19957;-56
2023/12/15 13:55:31;;;;;;;;;;;;;;;;;;4950172;29;19918;-55
2023/12/15 13:57:57;;;;;;;;;;;;;;;;;;4949136;29;19966;-56
2023/12/15 14:00:24;;;;;;;;;;;;;;;;;;4948515;29;19920;-56
2023/12/15 14:02:50;;;;;;;;;;;;;;;;;;4942660;29;19980;-56
2023/12/15 14:05:17;;;;;;;;;;;;;;;;;;4929771;29;20056;-56
2023/12/15 14:07:42;;;;;;;;;;;;;;;;;;4930944;29;19917;-56
2023/12/15 14:10:08;;;;;;;;;;;;;;;;;;4931018;29;20198;-56
2023/12/15 14:12:34;;;;;;;;;;;;;;;;;;4938652;29;20431;-56
2023/12/15 14:15:00;;;;;;;;;;;;;;;;;;4946090;28;19942;-56
2023/12/15 14:17:28;;;;;;;;;;;;;;;;;;4938630;29;19919;-54
2023/12/15 14:19:55;;;;;;;;;;;;;;;;;;4946372;29;20159;-55
2023/12/15 14:22:21;;;;;;;;;;;;;;;;;;4946279;29;19918;-53
2023/12/15 14:24:47;;;;;;;;;;;;;;;;;;4949822;29;19958;-55
2023/12/15 14:27:13;;;;;;;;;;;;;;;;;;4950385;29;19993;-53
2023/12/15 14:29:39;;;;;;;;;;;;;;;;;;4937524;29;19919;-57
2023/12/15 14:32:05;;;;;;;;;;;;;;;;;;4931827;29;19918;-57
2023/12/15 14:34:31;;;;;;;;;;;;;;;;;;4938061;29;19911;-58
2023/12/15 14:36:57;;;;;;;;;;;;;;;;;;4949093;29;19948;-57
2023/12/15 14:39:23;;;;;;;;;;;;;;;;;;4933611;29;19911;-57
2023/12/15 14:41:49;;;;;;;;;;;;;;;;;;4929183;29;19910;-57
2023/12/15 14:44:15;;;;;;;;;;;;;;;;;;4929499;29;19952;-57
2023/12/15 14:46:41;;;;;;;;;;;;;;;;;;4928993;29;20389;-57
2023/12/15 14:49:07;;;;;;;;;;;;;;;;;;4929358;29;19972;-57
2023/12/15 14:51:33;;;;;;;;;;;;;;;;;;4929884;29;19981;-58
2023/12/15 14:53:59;;;;;;;;;;;;;;;;;;4929817;29;19925;-57
2023/12/15 14:56:25;;;;;;;;;;;;;;;;;;4930024;29;19962;-57
2023/12/15 14:58:50;;;;;;;;;;;;;;;;;;4928901;29;20310;-57
2023/12/15 15:01:16;;;;;;;;;;;;;;;;;;4929323;29;19931;-57
2023/12/15 15:03:42;;;;;;;;;;;;;;;;;;4929063;29;20441;-57
2023/12/15 15:06:08;;;;;;;;;;;;;;;;;;4929315;29;19922;-58
2023/12/15 15:08:34;;;;;;;;;;;;;;;;;;4929080;29;19915;-58
2023/12/15 15:11:00;;;;;;;;;;;;;;;;;;4927584;29;20595;-57
2023/12/15 15:13:27;;;;;;;;;;;;;;;;;;4946143;29;19915;-57
2023/12/15 15:15:53;;;;;;;;;;;;;;;;;;4940463;29;20014;-58
2023/12/15 15:18:20;;;;;;;;;;;;;;;;;;4928985;29;20360;-58
2023/12/15 15:20:46;;;;;;;;;;;;;;;;;;4929203;29;19917;-58
2023/12/15 15:23:12;;;;;;;;;;;;;;;;;;4912104;29;19997;-58
2023/12/15 15:25:38;;;;;;;;;;;;;;;;;;4929356;29;19947;-58
2023/12/15 15:28:04;;;;;;;;;;;;;;;;;;4931380;29;19918;-58
2023/12/15 15:30:30;;;;;;;;;;;;;;;;;;4944965;29;19914;-57
2023/12/15 15:32:56;;;;;;;;;;;;;;;;;;4937762;29;19945;-57
2023/12/15 15:35:22;;;;;;;;;;;;;;;;;;4945881;29;20235;-57
2023/12/15 15:37:48;;;;;;;;;;;;;;;;;;4920323;29;19919;-57
2023/12/15 15:40:14;;;;;;;;;;;;;;;;;;4933164;29;19958;-57
2023/12/15 15:42:40;;;;;;;;;;;;;;;;;;4933358;29;19915;-57
2023/12/15 15:45:06;;;;;;;;;;;;;;;;;;4917644;29;19933;-57
2023/12/15 15:47:32;;;;;;;;;;;;;;;;;;4929134;29;20001;-57
2023/12/15 15:49:58;;;;;;;;;;;;;;;;;;4934090;29;20022;-57
2023/12/15 15:52:25;;;;;;;;;;;;;;;;;;4938948;29;19919;-57
2023/12/15 15:54:51;;;;;;;;;;;;;;;;;;4934345;29;19958;-57
2023/12/15 15:57:17;;;;;;;;;;;;;;;;;;4933383;29;20338;-57
2023/12/15 15:59:44;;;;;;;;;;;;;;;;;;4932009;29;20009;-58
2023/12/15 16:02:10;;;;;;;;;;;;;;;;;;4936151;29;19925;-57
2023/12/15 16:04:36;;;;;;;;;;;;;;;;;;4944617;29;19915;-57
2023/12/15 16:07:02;;;;;;;;;;;;;;;;;;4937645;29;20391;-57
2023/12/15 16:09:28;;;;;;;;;;;;;;;;;;4933832;29;19915;-57
2023/12/15 16:11:54;;;;;;;;;;;;;;;;;;4931880;29;19997;-57
2023/12/15 16:14:20;;;;;;;;;;;;;;;;;;4917827;29;20445;-57
2023/12/15 16:16:46;;;;;;;;;;;;;;;;;;4932745;29;19978;-57
2023/12/15 16:19:14;;;;;;;;;;;;;;;;;;4933460;29;19915;-56
2023/12/15 16:21:40;;;;;;;;;;;;;;;;;;4927705;29;19914;-57
2023/12/15 16:24:08;;;;;;;;;;;;;;;;;;4940818;29;19922;-57
2023/12/15 16:26:34;;;;;;;;;;;;;;;;;;4932758;29;20298;-57
2023/12/15 16:29:00;;;;;;;;;;;;;;;;;;4932108;29;19911;-57
2023/12/15 16:31:26;;;;;;;;;;;;;;;;;;4915980;29;19918;-57
2023/12/15 16:33:53;;;;;;;;;;;;;;;;;;4932422;29;20405;-57
2023/12/15 16:36:22;;;;;;;;;;;;;;;;;;4942873;29;19915;-57
2023/12/15 16:38:48;;;;;;;;;;;;;;;;;;4935040;29;20486;-57
2023/12/15 16:41:14;;;;;;;;;;;;;;;;;;4949921;29;20001;-57
2023/12/15 16:43:40;;;;;;;;;;;;;;;;;;4934684;29;20001;-57
2023/12/15 16:46:06;;;;;;;;;;;;;;;;;;4952699;29;19915;-57
2023/12/15 16:48:32;;;;;;;;;;;;;;;;;;4953042;29;19915;-56
2023/12/15 16:50:58;;;;;;;;;;;;;;;;;;4934850;29;19963;-57
2023/12/15 16:53:23;;;;;;;;;;;;;;;;;;4920960;29;20001;-57
2023/12/15 16:55:49;;;;;;;;;;;;;;;;;;4915708;29;19966;-57
2023/12/15 16:58:15;;;;;;;;;;;;;;;;;;4932167;29;19966;-57
2023/12/15 17:00:41;;;;;;;;;;;;;;;;;;4933482;29;19922;-57
2023/12/15 17:03:07;;;;;;;;;;;;;;;;;;4933136;29;19911;-57
2023/12/15 17:05:33;;;;;;;;;;;;;;;;;;4932987;29;19923;-57
2023/12/15 17:07:59;;;;;;;;;;;;;;;;;;4929705;29;19919;-57
2023/12/15 17:10:25;;;;;;;;;;;;;;;;;;4922790;29;20018;-57
2023/12/15 17:12:51;;;;;;;;;;;;;;;;;;4918810;29;19910;-59
2023/12/15 17:15:17;;;;;;;;;;;;;;;;;;4932885;29;20388;-59
2023/12/15 17:17:43;;;;;;;;;;;;;;;;;;4931385;29;19950;-59
2023/12/15 17:20:09;;;;;;;;;;;;;;;;;;4933512;29;19911;-59
2023/12/15 17:22:35;;;;;;;;;;;;;;;;;;4932697;29;19926;-59
2023/12/15 17:25:01;;;;;;;;;;;;;;;;;;4929563;29;19967;-59
2023/12/15 17:27:27;;;;;;;;;;;;;;;;;;4932983;29;19918;-59
2023/12/15 17:29:52;;;;;;;;;;;;;;;;;;4932620;29;19934;-59
2023/12/15 17:32:18;;;;;;;;;;;;;;;;;;4932658;29;20046;-59
2023/12/15 17:34:44;;;;;;;;;;;;;;;;;;4932368;29;19914;-59
2023/12/15 17:37:10;;;;;;;;;;;;;;;;;;4933033;29;19945;-59
2023/12/15 17:39:37;;;;;;;;;;;;;;;;;;4931146;29;20412;-59
2023/12/15 17:42:03;;;;;;;;;;;;;;;;;;4931620;29;19915;-59
2023/12/15 17:44:29;;;;;;;;;;;;;;;;;;4932693;29;19981;-59
2023/12/15 17:46:55;;;;;;;;;;;;;;;;;;4932181;29;19919;-59
2023/12/15 17:49:21;;;;;;;;;;;;;;;;;;4931876;29;19911;-59
2023/12/15 17:51:47;;;;;;;;;;;;;;;;;;4915331;29;20309;-59
2023/12/15 17:54:14;;;;;;;;;;;;;;;;;;4932401;29;19919;-59
2023/12/15 17:56:40;;;;;;;;;;;;;;;;;;4935020;29;20333;-59
2023/12/15 17:59:06;;;;;;;;;;;;;;;;;;4931635;29;19911;-59
2023/12/15 18:01:32;;;;;;;;;;;;;;;;;;4931076;29;19946;-59
2023/12/15 18:03:58;;;;;;;;;;;;;;;;;;4930631;29;20275;-59
2023/12/15 18:06:24;;;;;;;;;;;;;;;;;;4931411;29;19919;-59
2023/12/15 18:08:50;;;;;;;;;;;;;;;;;;4928758;29;20052;-58
2023/12/15 18:11:16;;;;;;;;;;;;;;;;;;4938939;29;19915;-59
2023/12/15 18:13:42;;;;;;;;;;;;;;;;;;4938325;29;19978;-59
2023/12/15 18:16:07;;;;;;;;;;;;;;;;;;4933349;29;19918;-59
2023/12/15 18:18:34;;;;;;;;;;;;;;;;;;4931125;29;20376;-59
2023/12/15 18:20:59;;;;;;;;;;;;;;;;;;4946896;29;19915;-59
2023/12/15 18:23:25;;;;;;;;;;;;;;;;;;4947089;29;19993;-59
2023/12/15 18:25:51;;;;;;;;;;;;;;;;;;4948732;29;20374;-59
2023/12/15 18:28:17;;;;;;;;;;;;;;;;;;4944108;29;19998;-59
2023/12/15 18:30:43;;;;;;;;;;;;;;;;;;4937250;29;19914;-59
2023/12/15 18:33:09;;;;;;;;;;;;;;;;;;4915294;29;19919;-60
2023/12/15 18:35:35;;;;;;;;;;;;;;;;;;4937705;29;19966;-59
2023/12/15 18:38:01;;;;;;;;;;;;;;;;;;4935275;29;19961;-59
2023/12/15 18:40:28;;;;;;;;;;;;;;;;;;4934834;29;19915;-59
2023/12/15 18:42:54;;;;;;;;;;;;;;;;;;4938078;29;19922;-59
2023/12/15 18:45:20;;;;;;;;;;;;;;;;;;4930233;29;19949;-59
2023/12/15 18:47:46;;;;;;;;;;;;;;;;;;4925861;29;20374;-59
2023/12/15 18:50:12;;;;;;;;;;;;;;;;;;4935116;29;19922;-59
2023/12/15 18:52:39;;;;;;;;;;;;;;;;;;4934029;29;19923;-59
2023/12/15 18:55:04;;;;;;;;;;;;;;;;;;4925613;29;19966;-59
2023/12/15 18:57:35;;;;;;;;;;;;;;;;;;4931797;29;20286;-59
2023/12/15 19:00:01;;;;;;;;;;;;;;;;;;4941947;29;20354;-59
2023/12/15 19:02:30;;;;;;;;;;;;;;;;;;4934671;28;20014;-59
2023/12/15 19:04:56;;;;;;;;;;;;;;;;;;4932692;29;20851;-59
2023/12/15 19:07:24;;;;;;;;;;;;;;;;;;4932708;29;19965;-59
2023/12/15 19:09:50;;;;;;;;;;;;;;;;;;4929480;29;19922;-59
2023/12/15 19:12:17;;;;;;;;;;;;;;;;;;4929150;29;20478;-59
2023/12/15 19:14:43;;;;;;;;;;;;;;;;;;4934492;29;19923;-59
2023/12/15 19:17:08;;;;;;;;;;;;;;;;;;4931747;29;19915;-59
2023/12/15 19:19:34;;;;;;;;;;;;;;;;;;4931535;29;19962;-59
2023/12/15 19:22:01;;;;;;;;;;;;;;;;;;4931954;29;19915;-60
2023/12/15 19:24:26;;;;;;;;;;;;;;;;;;4932106;29;19915;-59
2023/12/15 19:26:52;;;;;;;;;;;;;;;;;;4937389;29;19981;-59
2023/12/15 19:29:18;;;;;;;;;;;;;;;;;;4917152;29;20349;-59
2023/12/15 19:31:44;;;;;;;;;;;;;;;;;;4928456;29;19915;-59
2023/12/15 19:34:10;;;;;;;;;;;;;;;;;;4915900;29;20023;-59
2023/12/15 19:36:36;;;;;;;;;;;;;;;;;;4946007;29;19922;-59
2023/12/15 19:39:03;;;;;;;;;;;;;;;;;;4932287;29;19915;-59
2023/12/15 19:41:29;;;;;;;;;;;;;;;;;;4935182;29;20334;-59
2023/12/15 19:43:55;;;;;;;;;;;;;;;;;;4935701;29;20045;-59
2023/12/15 19:46:22;;;;;;;;;;;;;;;;;;4937365;29;19942;-59
2023/12/15 19:48:48;;;;;;;;;;;;;;;;;;4929698;29;19918;-59
2023/12/15 19:51:15;;;;;;;;;;;;;;;;;;4945119;29;20404;-59
2023/12/15 19:53:41;;;;;;;;;;;;;;;;;;4945290;29;19915;-59
2023/12/15 19:56:07;;;;;;;;;;;;;;;;;;4933500;29;19922;-59
2023/12/15 19:58:33;;;;;;;;;;;;;;;;;;4934139;29;20211;-59
2023/12/15 20:00:59;;;;;;;;;;;;;;;;;;4931420;29;19926;-59
2023/12/15 20:03:25;;;;;;;;;;;;;;;;;;4951417;29;19918;-59
2023/12/15 20:05:51;;;;;;;;;;;;;;;;;;4927929;29;19915;-59
2023/12/15 20:08:17;;;;;;;;;;;;;;;;;;4936005;29;19921;-59
2023/12/15 20:10:44;;;;;;;;;;;;;;;;;;4948272;29;19934;-59
2023/12/15 20:13:10;;;;;;;;;;;;;;;;;;4933673;29;20514;-59
2023/12/15 20:15:36;;;;;;;;;;;;;;;;;;4930915;29;19915;-59
2023/12/15 20:18:02;;;;;;;;;;;;;;;;;;4915880;29;19915;-59
2023/12/15 20:20:28;;;;;;;;;;;;;;;;;;4936217;29;19911;-59
2023/12/15 20:22:54;;;;;;;;;;;;;;;;;;4932299;29;20450;-59
2023/12/15 20:25:20;;;;;;;;;;;;;;;;;;4941794;29;19918;-59
2023/12/15 20:27:46;;;;;;;;;;;;;;;;;;4932398;29;19942;-59
2023/12/15 20:30:12;;;;;;;;;;;;;;;;;;4933809;29;19946;-59
2023/12/15 20:32:38;;;;;;;;;;;;;;;;;;4934878;29;19915;-59
2023/12/15 20:35:04;;;;;;;;;;;;;;;;;;4930964;29;20001;-59
2023/12/15 20:37:31;;;;;;;;;;;;;;;;;;4914326;29;19914;-59
2023/12/15 20:39:57;;;;;;;;;;;;;;;;;;4932047;29;19922;-59
2023/12/15 20:42:23;;;;;;;;;;;;;;;;;;4937005;29;19911;-59
2023/12/15 20:44:49;;;;;;;;;;;;;;;;;;4931872;29;20397;-59
2023/12/15 20:47:15;;;;;;;;;;;;;;;;;;4931705;29;20382;-59
2023/12/15 20:49:42;;;;;;;;;;;;;;;;;;4938746;29;19915;-59
2023/12/15 20:52:08;;;;;;;;;;;;;;;;;;4932195;29;19974;-59
2023/12/15 20:54:34;;;;;;;;;;;;;;;;;;4914967;29;20441;-59
2023/12/15 20:57:00;;;;;;;;;;;;;;;;;;4931805;29;19922;-59
2023/12/15 20:59:26;;;;;;;;;;;;;;;;;;4941367;29;19921;-59
2023/12/15 21:01:52;;;;;;;;;;;;;;;;;;4935259;29;20049;-59
2023/12/15 21:04:18;;;;;;;;;;;;;;;;;;4931545;29;19919;-59
2023/12/15 21:06:44;;;;;;;;;;;;;;;;;;4929648;29;21626;-58
2023/12/15 21:09:12;;;;;;;;;;;;;;;;;;4939525;29;20053;-58
2023/12/15 21:11:40;;;;;;;;;;;;;;;;;;4939597;29;19945;-59
2023/12/15 21:14:05;;;;;;;;;;;;;;;;;;4926339;29;19915;-58
2023/12/15 21:16:31;;;;;;;;;;;;;;;;;;4914873;29;20002;-59
2023/12/15 21:18:57;;;;;;;;;;;;;;;;;;4937756;29;19921;-59
2023/12/15 21:21:23;;;;;;;;;;;;;;;;;;4949514;29;19922;-59
2023/12/15 21:23:49;;;;;;;;;;;;;;;;;;4936866;29;19915;-59
2023/12/15 21:26:15;;;;;;;;;;;;;;;;;;4932139;29;19919;-58
2023/12/15 21:28:41;;;;;;;;;;;;;;;;;;4931301;29;19946;-59
2023/12/15 21:31:06;;;;;;;;;;;;;;;;;;4932108;29;19915;-58
2023/12/15 21:33:32;;;;;;;;;;;;;;;;;;4914659;29;19919;-59
2023/12/15 21:35:58;;;;;;;;;;;;;;;;;;4944432;29;19918;-58
2023/12/15 21:38:24;;;;;;;;;;;;;;;;;;4950735;29;19914;-58
2023/12/15 21:40:50;;;;;;;;;;;;;;;;;;4947671;29;19993;-58
2023/12/15 21:43:16;;;;;;;;;;;;;;;;;;4947618;29;19914;-59
2023/12/15 21:45:42;;;;;;;;;;;;;;;;;;4951328;29;19921;-58
2023/12/15 21:48:08;;;;;;;;;;;;;;;;;;4950984;29;19956;-59
2023/12/15 21:50:34;;;;;;;;;;;;;;;;;;4938249;29;19954;-59
2023/12/15 21:53:00;;;;;;;;;;;;;;;;;;4947273;29;19958;-59
2023/12/15 21:55:26;;;;;;;;;;;;;;;;;;4938722;29;20362;-59
2023/12/15 21:57:51;;;;;;;;;;;;;;;;;;4946656;29;19922;-58
2023/12/15 22:00:17;;;;;;;;;;;;;;;;;;4931511;29;20001;-59
2023/12/15 22:02:43;;;;;;;;;;;;;;;;;;4928568;29;19919;-58
2023/12/15 22:05:09;;;;;;;;;;;;;;;;;;4950643;29;19917;-58
2023/12/15 22:07:36;;;;;;;;;;;;;;;;;;4933259;29;19910;-58
2023/12/15 22:10:02;;;;;;;;;;;;;;;;;;4935965;29;19915;-59
2023/12/15 22:12:28;;;;;;;;;;;;;;;;;;4926170;29;20430;-59
2023/12/15 22:14:54;;;;;;;;;;;;;;;;;;4933726;29;19915;-58
2023/12/15 22:17:20;;;;;;;;;;;;;;;;;;4934506;29;20347;-59
2023/12/15 22:19:46;;;;;;;;;;;;;;;;;;4930615;29;19922;-59
2023/12/15 22:22:12;;;;;;;;;;;;;;;;;;4914263;29;19921;-59
2023/12/15 22:24:38;;;;;;;;;;;;;;;;;;4929725;29;19918;-58
2023/12/15 22:27:05;;;;;;;;;;;;;;;;;;4930351;29;19923;-59
2023/12/15 22:29:31;;;;;;;;;;;;;;;;;;4929946;29;20364;-58
2023/12/15 22:31:57;;;;;;;;;;;;;;;;;;4949964;29;19958;-59
2023/12/15 22:34:23;;;;;;;;;;;;;;;;;;4950322;29;19918;-59
2023/12/15 22:36:49;;;;;;;;;;;;;;;;;;4940255;29;20056;-58
2023/12/15 22:39:15;;;;;;;;;;;;;;;;;;4930632;29;19930;-56